Time;durP1;ratioP1;P1;durP2;ratioP2;P2;SDS_P1;SDS_P2;PMS_P1;PMS_P2;Temp;Humidity;BMP_temperature;BMP_pressure;BME280_temperature;BME280_humidity;BME280_pressure;Samples;Min_cycle;Max_cycle;Signal;HPM_P1;HPM_P2
2022/03/26 00:02:10;;;;;;;30.23;17.90;;;;;;;6.35;60.82;102294.03;7401173;19;20017;-65
2022/03/26 00:04:38;;;;;;;29.35;18.08;;;;;;;6.32;61.00;102288.78;7398377;19;20023;-66
2022/03/26 00:07:07;;;;;;;25.38;17.35;;;;;;;6.29;60.92;102294.81;7397964;19;20493;-65
2022/03/26 00:09:35;;;;;;;24.48;16.67;;;;;;;6.25;60.97;102289.47;7398153;19;20035;-69
2022/03/26 00:12:03;;;;;;;31.13;16.42;;;;;;;6.22;60.89;102290.31;7401133;19;20031;-65
2022/03/26 00:14:34;;;;;;;29.92;16.85;;;;;;;6.19;60.78;102292.81;7400947;19;20011;-66
2022/03/26 00:17:02;;;;;;;28.33;16.10;;;;;;;6.14;60.74;102287.53;7401016;19;20019;-65
2022/03/26 00:19:30;;;;;;;24.95;16.67;;;;;;;6.10;60.97;102287.44;7398181;19;20014;-65
2022/03/26 00:21:58;;;;;;;30.50;18.33;;;;;;;6.06;60.99;102286.47;7400497;19;20031;-65
2022/03/26 00:24:26;;;;;;;27.65;19.15;;;;;;;6.00;60.82;102284.63;7401093;19;20022;-65
2022/03/26 00:26:55;;;;;;;30.38;16.92;;;;;;;5.95;60.86;102286.22;7397692;19;20022;-65
2022/03/26 00:29:23;;;;;;;27.90;17.05;;;;;;;5.88;60.85;102281.72;7397194;19;20041;-66
2022/03/26 00:31:54;;;;;;;26.77;16.38;;;;;;;5.83;61.00;102283.34;7399945;19;20035;-66
2022/03/26 00:34:22;;;;;;;31.48;16.67;;;;;;;5.76;61.13;102276.22;7398022;19;20035;-66
2022/03/26 00:36:50;;;;;;;28.25;18.45;;;;;;;5.70;61.33;102277.84;7397462;19;20019;-66
2022/03/26 00:39:18;;;;;;;32.22;18.63;;;;;;;5.64;61.28;102275.09;7397728;19;20039;-66
2022/03/26 00:41:46;;;;;;;28.95;16.67;;;;;;;5.60;61.59;102281.09;7397070;19;20015;-66
2022/03/26 00:44:16;;;;;;;33.28;21.20;;;;;;;5.52;62.10;102286.09;7399517;19;20022;-66
2022/03/26 00:46:45;;;;;;;32.72;20.58;;;;;;;5.48;62.29;102286.00;7397919;19;20028;-66
2022/03/26 00:49:16;;;;;;;37.08;21.55;;;;;;;5.43;62.75;102283.25;7397658;19;20037;-66
2022/03/26 00:51:44;;;;;;;33.70;20.30;;;;;;;5.42;62.82;102281.53;7397460;19;20466;-66
2022/03/26 00:54:13;;;;;;;37.67;19.83;;;;;;;5.40;62.95;102285.81;7396562;19;20043;-66
2022/03/26 00:56:43;;;;;;;31.25;20.55;;;;;;;5.37;63.12;102277.91;7396573;19;20382;-66
2022/03/26 00:59:12;;;;;;;36.08;20.65;;;;;;;5.34;63.13;102281.31;7396608;19;20021;-66
2022/03/26 01:01:40;;;;;;;33.38;21.38;;;;;;;5.32;63.34;102280.41;7396471;19;20031;-66
2022/03/26 01:04:08;;;;;;;39.78;21.33;;;;;;;5.30;63.41;102283.81;7398574;19;20018;-64
2022/03/26 01:06:39;;;;;;;32.35;22.25;;;;;;;5.28;63.89;102272.50;7397767;19;20022;-64
2022/03/26 01:09:07;;;;;;;40.33;22.25;;;;;;;5.25;64.02;102277.63;7396398;19;20027;-65
2022/03/26 01:11:36;;;;;;;33.70;20.90;;;;;;;5.23;63.93;102274.97;7398335;19;20018;-65
2022/03/26 01:14:04;;;;;;;35.85;21.13;;;;;;;5.21;64.34;102266.25;7397882;19;20465;-65
2022/03/26 01:16:33;;;;;;;36.33;23.02;;;;;;;5.20;64.25;102270.56;7396014;19;20015;-65
2022/03/26 01:19:01;;;;;;;42.53;22.52;;;;;;;5.18;64.46;102271.38;7395846;19;20026;-65
2022/03/26 01:21:29;;;;;;;38.22;21.58;;;;;;;5.17;64.55;102274.84;7395926;19;20045;-65
2022/03/26 01:24:00;;;;;;;33.85;21.38;;;;;;;5.16;64.83;102263.53;7398111;19;20027;-65
2022/03/26 01:26:28;;;;;;;35.83;22.30;;;;;;;5.15;64.60;102266.09;7396228;19;20039;-65
2022/03/26 01:28:56;;;;;;;37.33;21.77;;;;;;;5.15;64.86;102269.56;7395658;19;20018;-65
2022/03/26 01:31:24;;;;;;;35.08;22.98;;;;;;;5.15;64.87;102266.09;7395573;19;20019;-65
2022/03/26 01:33:52;;;;;;;41.25;22.17;;;;;;;5.13;65.13;102263.47;7395600;19;20035;-65
2022/03/26 01:36:22;;;;;;;39.58;22.77;;;;;;;5.12;65.16;102260.81;7397647;19;20429;-65
2022/03/26 01:38:50;;;;;;;33.28;21.05;;;;;;;5.11;65.25;102257.34;7395368;19;20043;-65
2022/03/26 01:41:35;;;;;;;39.38;23.20;;;;;;;5.10;66.03;102252.09;7395475;19;20505;-65
2022/03/26 01:44:04;;;;;;;40.05;23.05;;;;;;;5.05;65.42;102251.97;7393611;19;20025;-64
2022/03/26 01:46:47;;;;;;;37.45;23.85;;;;;;;5.04;65.85;102264.13;7396130;19;20019;-65
2022/03/26 01:49:15;;;;;;;39.00;22.13;;;;;;;5.03;65.70;102257.16;7395149;19;20029;-65
2022/03/26 01:51:43;;;;;;;37.20;22.90;;;;;;;5.02;65.65;102257.13;7396819;19;20497;-65
2022/03/26 01:54:12;;;;;;;37.20;22.90;;;;;;;5.01;65.94;102255.34;7395154;19;20019;-65
2022/03/26 01:56:45;;;;;;;38.63;23.48;;;;;;;4.98;65.92;102256.16;7395261;19;20126;-65
2022/03/26 01:59:14;;;;;;;36.15;22.85;;;;;;;4.94;65.86;102246.53;7395380;19;20111;-65
2022/03/26 02:01:42;;;;;;;33.85;22.60;;;;;;;4.93;66.10;102249.94;7395032;19;20058;-65
2022/03/26 02:04:12;;;;;;;35.40;20.63;;;;;;;4.91;66.34;102251.63;7396664;19;20006;-65
2022/03/26 02:06:42;;;;;;;32.65;22.65;;;;;;;4.87;66.23;102250.66;7394797;19;20026;-67
2022/03/26 02:09:12;;;;;;;33.92;22.02;;;;;;;4.85;66.44;102246.25;7395031;19;20031;-65
2022/03/26 02:11:45;;;;;;;36.42;21.60;;;;;;;4.83;66.34;102248.81;7396989;19;20023;-65
2022/03/26 02:14:15;;;;;;;42.90;23.83;;;;;;;4.81;66.64;102249.63;7398042;19;20022;-65
2022/03/26 02:16:45;;;;;;;33.75;21.95;;;;;;;4.79;66.41;102244.41;7394550;19;20018;-65
2022/03/26 02:19:15;;;;;;;37.40;22.95;;;;;;;4.78;66.61;102249.53;7394097;19;20014;-65
2022/03/26 02:21:49;;;;;;;39.03;23.30;;;;;;;4.76;66.64;102244.28;7396455;19;20019;-65
2022/03/26 02:24:18;;;;;;;39.67;23.63;;;;;;;4.74;66.72;102246.00;7396397;19;20018;-65
2022/03/26 02:26:47;;;;;;;43.05;24.05;;;;;;;4.71;66.93;102248.50;7395071;19;20018;-65
2022/03/26 02:29:15;;;;;;;37.05;23.60;;;;;;;4.68;66.97;102245.81;7394118;19;20027;-65
2022/03/26 02:31:43;;;;;;;37.70;23.58;;;;;;;4.65;67.23;102246.63;7395912;19;20049;-64
2022/03/26 02:34:11;;;;;;;34.78;21.08;;;;;;;4.64;67.08;102247.47;7395617;19;20035;-65
2022/03/26 02:36:39;;;;;;;40.85;22.63;;;;;;;4.62;67.31;102238.72;7395608;19;20383;-66
2022/03/26 02:39:10;;;;;;;39.15;23.08;;;;;;;4.60;67.35;102235.22;7394156;19;20039;-65
2022/03/26 02:41:38;;;;;;;38.53;23.05;;;;;;;4.55;67.29;102229.91;7395013;19;20047;-65
2022/03/26 02:44:07;;;;;;;39.08;23.05;;;;;;;4.56;67.34;102238.56;7395795;19;20064;-65
2022/03/26 02:46:39;;;;;;;40.00;22.40;;;;;;;4.54;67.38;102235.94;7394647;19;20036;-65
2022/03/26 02:49:07;;;;;;;45.65;24.05;;;;;;;4.52;67.37;102236.72;7394174;19;20387;-65
2022/03/26 02:51:35;;;;;;;36.13;21.13;;;;;;;4.50;67.46;102228.00;7393729;19;20022;-65
2022/03/26 02:54:03;;;;;;;37.00;23.13;;;;;;;4.47;67.44;102234.00;7394291;19;20022;-65
2022/03/26 02:56:34;;;;;;;33.85;21.45;;;;;;;4.45;67.66;102233.09;7391508;19;20014;-65
2022/03/26 02:59:02;;;;;;;41.83;24.63;;;;;;;4.43;67.58;102226.09;7393354;19;20026;-65
2022/03/26 03:01:30;;;;;;;38.40;23.00;;;;;;;4.40;67.71;102227.75;7392861;19;20497;-64
2022/03/26 03:03:59;;;;;;;34.85;22.40;;;;;;;4.38;67.96;102224.22;7394851;19;20031;-65
2022/03/26 03:06:27;;;;;;;43.17;23.35;;;;;;;4.35;67.91;102224.16;7394219;19;20018;-65
2022/03/26 03:08:55;;;;;;;37.20;23.17;;;;;;;4.34;68.36;102231.91;7392935;19;20018;-65
2022/03/26 03:11:23;;;;;;;41.47;23.05;;;;;;;4.32;68.27;102228.38;7394650;19;20011;-65
2022/03/26 03:13:54;;;;;;;46.97;23.65;;;;;;;4.28;68.50;102227.41;7394573;19;20015;-65
2022/03/26 03:16:22;;;;;;;40.92;23.50;;;;;;;4.26;68.48;102221.31;7394500;19;20022;-65
2022/03/26 03:18:50;;;;;;;40.10;23.77;;;;;;;4.23;68.50;102219.50;7392670;19;20026;-65
2022/03/26 03:21:19;;;;;;;39.70;22.73;;;;;;;4.21;68.62;102220.28;7392681;19;20014;-66
2022/03/26 03:23:47;;;;;;;44.65;24.10;;;;;;;4.17;68.88;102214.13;7392543;19;20022;-65
2022/03/26 03:26:15;;;;;;;40.55;25.25;;;;;;;4.12;68.92;102210.53;7392377;19;20379;-65
2022/03/26 03:28:44;;;;;;;46.22;25.90;;;;;;;4.13;69.13;102221.78;7392935;19;20023;-65
2022/03/26 03:31:15;;;;;;;42.35;26.27;;;;;;;4.11;69.31;102223.44;7392267;19;20018;-65
2022/03/26 03:33:43;;;;;;;45.45;26.48;;;;;;;4.08;69.93;102230.34;7391871;19;20553;-65
2022/03/26 03:36:11;;;;;;;48.83;28.60;;;;;;;4.07;69.89;102236.34;7392205;19;20014;-65
2022/03/26 03:38:39;;;;;;;53.63;27.98;;;;;;;4.10;69.91;102232.97;7391878;19;20032;-65
2022/03/26 03:41:09;;;;;;;42.97;25.67;;;;;;;4.12;69.92;102220.00;7394064;19;20045;-65
2022/03/26 03:43:37;;;;;;;52.97;27.02;;;;;;;4.15;70.28;102233.09;7392097;19;20007;-65
2022/03/26 03:46:05;;;;;;;49.97;28.55;;;;;;;4.16;69.99;102224.47;7391847;19;20011;-65
2022/03/26 03:48:36;;;;;;;47.75;26.17;;;;;;;4.17;70.47;102223.63;7391590;19;20023;-65
2022/03/26 03:51:04;;;;;;;46.72;26.15;;;;;;;4.18;70.28;102230.59;7393369;19;20503;-65
2022/03/26 03:53:32;;;;;;;43.75;25.85;;;;;;;4.17;70.38;102213.22;7393607;19;20035;-65
2022/03/26 03:56:01;;;;;;;47.88;25.95;;;;;;;4.16;70.70;102214.97;7393597;19;20027;-65
2022/03/26 03:58:29;;;;;;;45.55;25.40;;;;;;;4.15;70.54;102210.59;7392423;19;20032;-65
2022/03/26 04:00:57;;;;;;;46.35;25.90;;;;;;;4.14;70.78;102214.03;7393470;19;20022;-65
2022/03/26 04:03:25;;;;;;;52.38;25.92;;;;;;;4.12;70.54;102213.13;7393329;19;20470;-65
2022/03/26 04:05:56;;;;;;;41.55;23.85;;;;;;;4.09;70.64;102213.00;7391738;19;20022;-65
2022/03/26 04:08:24;;;;;;;49.97;26.58;;;;;;;4.07;70.77;102201.72;7398319;19;20031;-65
2022/03/26 04:10:52;;;;;;;43.50;25.17;;;;;;;4.04;70.82;102207.72;7400676;19;20082;-65
2022/03/26 04:13:20;;;;;;;49.50;26.35;;;;;;;4.03;70.62;102208.53;7400567;19;20070;-65
2022/03/26 04:15:49;;;;;;;48.72;27.33;;;;;;;4.04;70.98;102209.41;7397863;19;20027;-65
2022/03/26 04:18:17;;;;;;;48.28;25.98;;;;;;;4.02;70.99;102213.66;7397646;19;20070;-65
2022/03/26 04:20:45;;;;;;;51.60;26.92;;;;;;;4.01;71.17;102218.00;7400254;19;20022;-65
2022/03/26 04:23:16;;;;;;;47.47;26.17;;;;;;;4.01;71.13;102210.19;7400288;19;20036;-65
2022/03/26 04:25:44;;;;;;;47.72;26.98;;;;;;;4.00;71.07;102215.34;7400496;19;20116;-65
2022/03/26 04:28:12;;;;;;;45.97;26.50;;;;;;;3.99;71.22;102216.19;7397776;19;20060;-65
2022/03/26 04:30:40;;;;;;;43.92;26.90;;;;;;;3.96;71.34;102222.19;7397652;19;20093;-64
2022/03/26 04:33:08;;;;;;;49.67;24.95;;;;;;;3.94;71.41;102226.44;7399903;19;20494;-66
2022/03/26 04:35:37;;;;;;;49.20;27.70;;;;;;;3.93;71.76;102232.50;7397315;19;20035;-66
2022/03/26 04:38:06;;;;;;;52.15;27.92;;;;;;;3.92;71.86;102225.53;7396790;19;20019;-66
2022/03/26 04:40:36;;;;;;;52.25;28.40;;;;;;;3.92;72.02;102228.13;7399367;19;20086;-66
2022/03/26 04:43:06;;;;;;;48.75;28.33;;;;;;;3.92;71.72;102236.78;7396643;19;20014;-66
2022/03/26 04:45:34;;;;;;;45.63;26.75;;;;;;;3.93;71.98;102242.88;7396942;19;20035;-66
2022/03/26 04:48:03;;;;;;;54.63;29.02;;;;;;;3.93;72.97;102245.47;7397428;19;20074;-65
2022/03/26 04:50:31;;;;;;;51.95;29.38;;;;;;;3.92;73.00;102247.16;7399263;19;20035;-66
2022/03/26 04:52:59;;;;;;;53.03;29.63;;;;;;;3.96;73.29;102250.75;7399100;19;20018;-65
2022/03/26 04:55:27;;;;;;;53.72;27.70;;;;;;;3.98;73.41;102255.97;7396802;19;20015;-65
2022/03/26 04:57:58;;;;;;;52.28;28.75;;;;;;;4.01;73.82;102253.50;7398265;19;20099;-65
2022/03/26 05:00:26;;;;;;;52.58;30.08;;;;;;;4.04;73.89;102244.06;7399363;19;20019;-65
2022/03/26 05:02:55;;;;;;;55.22;30.95;;;;;;;4.07;73.86;102249.34;7396492;19;20533;-65
2022/03/26 05:05:23;;;;;;;50.28;28.08;;;;;;;4.10;73.75;102243.34;7398337;19;20505;-66
2022/03/26 05:07:55;;;;;;;56.28;28.60;;;;;;;4.14;73.89;102239.13;7396202;19;20082;-65
2022/03/26 05:10:27;;;;;;;54.03;28.38;;;;;;;4.15;73.88;102243.50;7399111;19;20028;-66
2022/03/26 05:12:59;;;;;;;54.75;29.65;;;;;;;4.17;74.13;102244.41;7396967;19;20118;-66
2022/03/26 05:15:29;;;;;;;54.90;29.88;;;;;;;4.19;73.72;102243.63;7398823;19;20031;-67
2022/03/26 05:17:58;;;;;;;56.08;28.90;;;;;;;4.21;74.00;102256.66;7395699;19;20018;-65
2022/03/26 05:20:27;;;;;;;53.97;27.63;;;;;;;4.22;73.76;102253.22;7397505;19;20544;-66
2022/03/26 05:22:55;;;;;;;50.95;28.08;;;;;;;4.23;73.43;102254.97;7397892;19;20485;-64
2022/03/26 05:25:23;;;;;;;51.67;28.17;;;;;;;4.22;73.47;102242.81;7398138;19;20078;-66
2022/03/26 05:27:53;;;;;;;49.85;27.95;;;;;;;4.22;73.59;102254.09;7397098;19;20074;-65
2022/03/26 05:30:24;;;;;;;70.47;39.17;;;;;;;4.25;73.63;102250.72;7395898;19;20022;-66
2022/03/26 05:32:52;;;;;;;53.78;29.10;;;;;;;4.26;73.70;102251.59;7398265;19;20033;-65
2022/03/26 05:35:21;;;;;;;50.38;27.42;;;;;;;4.26;73.70;102249.88;7395978;19;20023;-65
2022/03/26 05:37:50;;;;;;;51.08;28.52;;;;;;;4.23;73.47;102239.38;7395211;19;20532;-66
2022/03/26 05:40:20;;;;;;;51.65;27.48;;;;;;;4.24;73.40;102238.56;7395712;19;20035;-65
2022/03/26 05:42:49;;;;;;;50.13;28.48;;;;;;;4.22;73.42;102240.22;7396304;19;20386;-65
2022/03/26 05:45:18;;;;;;;52.58;29.85;;;;;;;4.20;73.58;102253.16;7395253;19;20422;-65
2022/03/26 05:47:51;;;;;;;54.20;28.98;;;;;;;4.20;73.49;102260.09;7395861;19;20480;-67
2022/03/26 05:50:20;;;;;;;56.85;30.88;;;;;;;4.20;73.46;102265.28;7395846;19;20019;-65
2022/03/26 05:52:48;;;;;;;54.97;30.90;;;;;;;4.20;74.38;102262.69;7396788;19;20431;-67
2022/03/26 05:55:16;;;;;;;55.97;30.08;;;;;;;4.23;74.11;102270.56;7395307;19;20019;-66
2022/03/26 05:57:46;;;;;;;56.58;31.52;;;;;;;4.28;74.10;102262.91;7396793;19;20045;-66
2022/03/26 06:00:15;;;;;;;55.47;30.73;;;;;;;4.32;74.57;102259.56;7397128;19;20032;-68
2022/03/26 06:02:43;;;;;;;54.03;30.63;;;;;;;4.38;74.54;102263.19;7397186;19;20041;-66
2022/03/26 06:05:16;;;;;;;57.95;32.42;;;;;;;4.45;74.41;102256.47;7396743;19;20031;-65
2022/03/26 06:07:44;;;;;;;58.33;31.60;;;;;;;4.53;74.17;102261.88;7395207;19;20034;-66
2022/03/26 06:10:12;;;;;;;58.67;32.33;;;;;;;4.62;74.24;102259.53;7394895;19;20023;-65
2022/03/26 06:12:40;;;;;;;58.03;31.10;;;;;;;4.68;74.06;102259.69;7396416;19;20030;-64
2022/03/26 06:15:10;;;;;;;57.83;31.60;;;;;;;4.77;74.15;102263.41;7394785;19;20035;-65
2022/03/26 06:17:38;;;;;;;58.22;30.95;;;;;;;4.86;73.82;102261.03;7393914;19;20504;-65
2022/03/26 06:20:07;;;;;;;57.45;31.25;;;;;;;4.95;73.67;102252.59;7396188;19;20025;-65
2022/03/26 06:22:38;;;;;;;60.08;32.53;;;;;;;5.03;73.46;102254.53;7396048;19;20023;-65
2022/03/26 06:25:07;;;;;;;57.33;31.58;;;;;;;5.13;73.04;102265.16;7394450;19;20087;-65
2022/03/26 06:27:36;;;;;;;59.40;31.23;;;;;;;5.21;72.83;102267.13;7393629;19;20022;-66
2022/03/26 06:30:05;;;;;;;54.25;30.77;;;;;;;5.28;72.63;102264.69;7394743;19;20029;-65
2022/03/26 06:32:35;;;;;;;61.85;31.67;;;;;;;5.39;72.39;102264.09;7395284;19;20067;-65
2022/03/26 06:35:05;;;;;;;55.42;30.58;;;;;;;5.48;71.99;102259.97;7395960;19;20030;-65
2022/03/26 06:37:33;;;;;;;56.03;30.23;;;;;;;5.61;71.89;102262.03;7394916;19;20015;-65
2022/03/26 06:40:11;;;;;;;52.95;29.63;;;;;;;5.73;71.98;102265.75;7394627;19;20494;-66
2022/03/26 06:42:39;;;;;;;56.33;30.42;;;;;;;5.83;71.23;102268.56;7393872;19;20023;-64
2022/03/26 06:45:08;;;;;;;56.08;28.38;;;;;;;5.96;71.21;102271.47;7393245;19;20019;-65
2022/03/26 06:47:37;;;;;;;56.40;31.08;;;;;;;6.06;70.89;102269.97;7394608;19;20078;-65
2022/03/26 06:50:06;;;;;;;51.40;29.85;;;;;;;6.17;70.48;102263.25;7395300;19;20015;-65
2022/03/26 06:52:34;;;;;;;52.85;29.70;;;;;;;6.28;70.49;102264.38;7395162;19;20022;-65
2022/03/26 06:55:04;;;;;;;52.85;28.75;;;;;;;6.41;70.32;102261.97;7393836;19;20081;-66
2022/03/26 06:57:35;;;;;;;48.67;27.52;;;;;;;6.53;70.33;102267.44;7395115;19;20041;-65
2022/03/26 07:00:03;;;;;;;50.67;29.85;;;;;;;6.64;69.72;102259.84;7395141;19;20481;-66
2022/03/26 07:02:31;;;;;;;48.72;29.05;;;;;;;6.74;69.93;102266.97;7395373;19;20038;-66
2022/03/26 07:04:59;;;;;;;52.65;28.50;;;;;;;6.85;69.65;102259.38;7395016;19;20426;-65
2022/03/26 07:07:27;;;;;;;53.75;28.23;;;;;;;6.97;69.31;102256.09;7394419;19;20489;-65
2022/03/26 07:09:55;;;;;;;56.67;29.20;;;;;;;7.09;69.34;102260.63;7393453;19;20078;-65
2022/03/26 07:12:24;;;;;;;50.72;29.08;;;;;;;7.20;69.06;102259.06;7393321;19;20094;-65
2022/03/26 07:14:54;;;;;;;49.63;29.70;;;;;;;7.30;69.09;102263.63;7392971;19;20019;-65
2022/03/26 07:17:22;;;;;;;50.38;27.88;;;;;;;7.41;69.18;102270.75;7393316;19;20086;-65
2022/03/26 07:19:51;;;;;;;43.90;27.13;;;;;;;7.53;69.11;102272.66;7394985;19;20032;-65
2022/03/26 07:22:26;;;;;;;46.97;28.10;;;;;;;7.64;68.84;102271.09;7392906;19;20019;-65
2022/03/26 07:24:54;;;;;;;45.67;28.10;;;;;;;7.75;69.03;102279.09;7394864;19;20086;-65
2022/03/26 07:27:22;;;;;;;41.55;24.85;;;;;;;7.86;69.16;102266.16;7394362;19;20018;-65
2022/03/26 07:29:50;;;;;;;46.75;27.60;;;;;;;7.96;69.61;102287.22;7393385;19;20082;-66
2022/03/26 07:32:22;;;;;;;45.75;26.23;;;;;;;8.07;68.98;102273.44;7391990;19;20018;-65
2022/03/26 07:34:51;;;;;;;38.15;25.23;;;;;;;8.19;69.05;102262.25;7392665;19;20014;-66
2022/03/26 07:37:19;;;;;;;39.50;24.00;;;;;;;8.27;68.65;102258.84;7393689;19;20500;-65
2022/03/26 07:39:47;;;;;;;39.85;24.45;;;;;;;8.37;68.51;102265.09;7391918;19;20509;-66
2022/03/26 07:42:16;;;;;;;37.20;23.88;;;;;;;8.48;68.12;102258.28;7396093;19;20781;-66
2022/03/26 07:44:45;;;;;;;40.28;23.67;;;;;;;8.57;68.31;102254.88;7401905;19;20014;-66
2022/03/26 07:47:13;;;;;;;36.60;22.63;;;;;;;8.69;68.05;102242.78;7401738;19;20019;-65
2022/03/26 07:49:44;;;;;;;30.73;21.17;;;;;;;8.78;67.90;102254.25;7398580;19;20082;-66
2022/03/26 07:52:12;;;;;;;33.72;22.02;;;;;;;8.91;67.38;102249.09;7402155;19;20023;-66
2022/03/26 07:54:40;;;;;;;34.10;20.50;;;;;;;9.01;66.90;102253.59;7398796;19;20091;-66
2022/03/26 07:57:09;;;;;;;33.88;21.67;;;;;;;9.14;66.11;102262.41;7398640;19;20082;-66
2022/03/26 07:59:37;;;;;;;30.25;19.05;;;;;;;9.27;65.38;102253.78;7398379;19;20095;-65
2022/03/26 08:02:05;;;;;;;31.70;20.77;;;;;;;9.37;65.14;102257.34;7398395;19;20035;-66
2022/03/26 08:04:35;;;;;;;28.35;19.40;;;;;;;9.48;64.42;102253.94;7397924;19;20087;-65
2022/03/26 08:07:06;;;;;;;29.85;18.30;;;;;;;9.58;63.82;102258.38;7398216;19;20018;-65
2022/03/26 08:09:34;;;;;;;31.50;18.77;;;;;;;9.67;63.67;102252.31;7398023;19;20042;-65
2022/03/26 08:12:03;;;;;;;30.55;18.02;;;;;;;9.76;63.33;102257.63;7397756;19;20477;-66
2022/03/26 08:14:33;;;;;;;29.63;17.80;;;;;;;9.86;62.75;102250.69;7398104;19;20041;-65
2022/03/26 08:17:01;;;;;;;27.15;18.10;;;;;;;9.93;62.35;102248.09;7401044;19;20023;-65
2022/03/26 08:19:29;;;;;;;27.25;17.08;;;;;;;10.02;61.01;102252.53;7397825;19;20087;-65
2022/03/26 08:21:57;;;;;;;26.60;17.48;;;;;;;10.11;61.27;102249.06;7400263;19;20018;-65
2022/03/26 08:24:28;;;;;;;24.23;16.92;;;;;;;10.17;61.34;102243.81;7399394;19;20485;-64
2022/03/26 08:26:56;;;;;;;28.27;17.75;;;;;;;10.26;61.43;102242.97;7396822;19;20426;-65
2022/03/26 08:29:24;;;;;;;30.02;17.40;;;;;;;10.34;60.76;102245.66;7397800;19;20082;-65
2022/03/26 08:31:52;;;;;;;24.15;16.63;;;;;;;10.41;60.59;102247.44;7397305;19;20018;-65
2022/03/26 08:34:21;;;;;;;26.50;16.52;;;;;;;10.49;60.60;102248.34;7397586;19;20019;-65
2022/03/26 08:36:49;;;;;;;25.45;16.55;;;;;;;10.55;60.30;102245.75;7400020;19;20019;-66
2022/03/26 08:39:17;;;;;;;24.75;16.30;;;;;;;10.63;60.39;102232.63;7397159;19;20011;-66
2022/03/26 08:41:48;;;;;;;25.90;16.55;;;;;;;10.69;59.80;102232.66;7396753;19;20086;-66
2022/03/26 08:44:16;;;;;;;28.90;16.23;;;;;;;10.79;60.11;102235.28;7397138;19;20078;-66
2022/03/26 08:46:45;;;;;;;25.42;14.00;;;;;;;10.87;58.98;102251.94;7396757;19;20074;-66
2022/03/26 08:49:13;;;;;;;24.80;15.55;;;;;;;10.97;59.43;102229.16;7396295;19;20027;-66
2022/03/26 08:51:41;;;;;;;27.67;15.32;;;;;;;11.07;58.72;102229.16;7396856;19;20034;-66
2022/03/26 08:54:09;;;;;;;21.58;13.75;;;;;;;11.19;59.01;102230.03;7399385;19;20047;-66
2022/03/26 08:56:37;;;;;;;25.33;14.25;;;;;;;11.30;58.58;102230.91;7396944;19;20153;-67
2022/03/26 08:59:08;;;;;;;18.63;12.98;;;;;;;11.41;57.63;102230.88;7396612;19;20082;-66
2022/03/26 09:01:36;;;;;;;16.85;13.25;;;;;;;11.52;57.57;102220.38;7399467;19;20026;-66
2022/03/26 09:04:05;;;;;;;20.33;11.95;;;;;;;11.61;56.76;102251.00;7396628;19;20019;-68
2022/03/26 09:06:33;;;;;;;17.23;13.02;;;;;;;11.68;56.20;102221.22;7398888;19;20074;-66
2022/03/26 09:09:02;;;;;;;20.50;13.20;;;;;;;11.74;56.28;102231.72;7396576;19;20066;-67
2022/03/26 09:11:30;;;;;;;17.92;12.75;;;;;;;11.80;56.06;102228.19;7396249;19;20477;-66
2022/03/26 09:13:59;;;;;;;19.10;12.70;;;;;;;11.83;55.57;102231.69;7396556;19;20031;-67
2022/03/26 09:16:30;;;;;;;20.42;13.43;;;;;;;11.94;55.36;102234.25;7396328;19;20014;-66
2022/03/26 09:18:59;;;;;;;16.48;11.48;;;;;;;12.02;55.34;102224.63;7396631;19;20024;-66
2022/03/26 09:21:27;;;;;;;15.68;11.80;;;;;;;12.10;54.82;102229.84;7396220;19;20041;-67
2022/03/26 09:23:55;;;;;;;17.90;11.40;;;;;;;12.16;54.49;102223.69;7398234;19;20074;-64
2022/03/26 09:26:24;;;;;;;18.38;11.43;;;;;;;12.24;54.69;102221.03;7398035;19;20027;-64
2022/03/26 09:28:52;;;;;;;18.33;11.63;;;;;;;12.28;54.61;102215.72;7397427;19;20038;-66
2022/03/26 09:31:20;;;;;;;17.98;12.10;;;;;;;12.36;54.47;102208.69;7397506;19;20500;-65
2022/03/26 09:33:51;;;;;;;18.73;11.63;;;;;;;12.40;53.97;102199.00;7397839;19;20473;-66
2022/03/26 09:36:19;;;;;;;16.98;11.27;;;;;;;12.46;53.66;102221.78;7395799;19;20014;-65
2022/03/26 09:38:47;;;;;;;17.80;10.75;;;;;;;12.51;54.23;102214.72;7395698;19;20390;-65
2022/03/26 09:41:16;;;;;;;15.07;11.00;;;;;;;12.55;53.59;102208.56;7394876;19;20015;-65
2022/03/26 09:43:45;;;;;;;17.13;10.07;;;;;;;12.59;53.18;102212.91;7395664;19;20007;-65
2022/03/26 09:46:14;;;;;;;17.60;11.05;;;;;;;12.63;53.56;102213.78;7395544;19;20079;-65
2022/03/26 09:48:44;;;;;;;18.27;11.40;;;;;;;12.68;53.41;102204.09;7395261;19;20041;-66
2022/03/26 09:51:18;;;;;;;16.13;11.75;;;;;;;12.71;53.26;102196.16;7395229;19;20023;-65
2022/03/26 09:53:47;;;;;;;17.58;10.80;;;;;;;12.77;53.32;102204.00;7394867;19;20481;-66
2022/03/26 09:56:15;;;;;;;15.52;9.60;;;;;;;12.84;51.41;102210.13;7397213;19;20018;-64
2022/03/26 09:58:43;;;;;;;14.65;8.68;;;;;;;12.88;51.98;102230.28;7395393;19;20153;-64
2022/03/26 10:01:11;;;;;;;17.23;10.23;;;;;;;12.91;52.10;102203.91;7395227;19;20022;-65
2022/03/26 10:03:40;;;;;;;15.20;10.13;;;;;;;12.96;51.76;102212.63;7395594;19;20410;-66
2022/03/26 10:06:09;;;;;;;15.63;10.40;;;;;;;13.01;51.61;102208.19;7397123;19;20022;-66
2022/03/26 10:08:41;;;;;;;14.45;10.02;;;;;;;13.05;51.18;102203.78;7395552;19;20018;-66
2022/03/26 10:11:10;;;;;;;15.45;10.38;;;;;;;13.09;50.77;102199.38;7395158;19;20019;-66
2022/03/26 10:13:42;;;;;;;14.38;9.27;;;;;;;13.14;50.45;102205.47;7395190;19;20015;-66
2022/03/26 10:16:12;;;;;;;13.82;9.80;;;;;;;13.19;49.37;102209.81;7395075;19;20014;-65
2022/03/26 10:18:42;;;;;;;14.98;9.52;;;;;;;13.24;49.18;102215.03;7395118;19;20019;-66
2022/03/26 10:21:13;;;;;;;15.25;10.13;;;;;;;13.28;49.15;102186.88;7394841;19;20374;-65
2022/03/26 10:23:47;;;;;;;15.70;10.40;;;;;;;13.31;48.73;102190.38;7397167;19;20027;-65
2022/03/26 10:26:17;;;;;;;13.40;11.15;;;;;;;13.35;49.86;102192.06;7394820;19;20031;-65
2022/03/26 10:28:51;;;;;;;15.05;10.25;;;;;;;13.43;49.42;102201.72;7393479;19;20436;-65
2022/03/26 10:34:07;;;;;;;19.00;11.63;;;;;;;13.59;48.64;102178.69;7396787;19;19926;-66
2022/03/26 10:36:36;;;;;;;14.32;9.43;;;;;;;13.65;48.25;102181.25;7396278;19;20018;-65
2022/03/26 10:39:08;;;;;;;12.88;9.45;;;;;;;13.72;48.63;102179.41;7394377;19;20381;-65
2022/03/26 10:41:37;;;;;;;17.23;9.35;;;;;;;13.75;47.71;102187.28;7394883;19;20022;-66
2022/03/26 10:44:11;;;;;;;14.32;8.82;;;;;;;13.78;46.98;102185.47;7394128;19;20516;-64
2022/03/26 10:46:48;;;;;;;16.92;9.95;;;;;;;13.87;46.56;102181.00;7395868;19;20035;-63
2022/03/26 10:49:27;;;;;;;13.63;9.25;;;;;;;13.93;46.82;102192.34;7394032;19;20074;-65
2022/03/26 10:51:56;;;;;;;12.98;8.45;;;;;;;13.99;46.24;102191.41;7396432;19;20078;-65
2022/03/26 10:54:36;;;;;;;12.80;7.60;;;;;;;14.02;45.32;102189.56;7393993;19;20010;-64
2022/03/26 10:57:05;;;;;;;11.52;8.15;;;;;;;14.11;46.33;102172.75;7395860;19;20087;-65
2022/03/26 10:59:34;;;;;;;10.50;7.50;;;;;;;14.20;46.02;102176.16;7394260;19;20033;-66
2022/03/26 11:02:03;;;;;;;11.45;8.05;;;;;;;14.30;45.44;102169.84;7394844;19;20443;-64
2022/03/26 11:04:31;;;;;;;11.82;8.50;;;;;;;14.41;45.40;102172.34;7393470;19;20036;-64
2022/03/26 11:07:00;;;;;;;14.15;8.68;;;;;;;14.54;45.42;102186.22;7393461;19;20026;-65
2022/03/26 11:09:31;;;;;;;13.45;8.75;;;;;;;14.66;45.16;102167.59;7393341;19;20086;-65
2022/03/26 11:12:01;;;;;;;13.23;8.63;;;;;;;14.76;45.00;102177.09;7394291;19;20086;-65
2022/03/26 11:14:35;;;;;;;11.55;8.63;;;;;;;14.88;45.39;102180.44;7394491;19;20053;-65
2022/03/26 11:17:17;;;;;;;13.05;8.73;;;;;;;14.96;44.75;102179.41;7397059;19;20019;-65
2022/03/26 11:20:12;;;;;;;13.80;8.82;;;;;;;14.94;44.52;102207.63;7403647;19;20022;-65
2022/03/26 11:23:05;;;;;;;11.70;7.85;;;;;;;14.99;44.89;102181.13;7397913;19;20086;-65
2022/03/26 11:25:53;;;;;;;15.63;9.10;;;;;;;15.06;44.74;102179.25;7400966;19;20504;-65
2022/03/26 11:28:37;;;;;;;15.70;8.52;;;;;;;15.11;44.76;102175.63;7398177;19;20357;-65
2022/03/26 11:31:11;;;;;;;13.55;9.25;;;;;;;15.12;45.48;102192.34;7403076;19;20018;-65